sensor_id;sensor_type;location;lat;lon;timestamp;P1;durP1;ratioP1;P2;durP2;ratioP2
42488;SDS011;28118;52.388;9.452;2022-07-22T00:01:37;15.52;;;12.85;;
42488;SDS011;28118;52.388;9.452;2022-07-22T00:04:04;13.68;;;12.43;;
42488;SDS011;28118;52.388;9.452;2022-07-22T00:06:30;15.80;;;11.40;;
42488;SDS011;28118;52.388;9.452;2022-07-22T00:08:57;13.57;;;11.63;;
42488;SDS011;28118;52.388;9.452;2022-07-22T00:11:25;13.80;;;12.40;;
42488;SDS011;28118;52.388;9.452;2022-07-22T00:13:51;13.52;;;12.23;;
42488;SDS011;28118;52.388;9.452;2022-07-22T00:16:18;25.00;;;11.68;;
42488;SDS011;28118;52.388;9.452;2022-07-22T00:18:45;12.88;;;11.68;;
42488;SDS011;28118;52.388;9.452;2022-07-22T00:21:12;17.55;;;12.63;;
42488;SDS011;28118;52.388;9.452;2022-07-22T00:23:39;9.98;;;9.18;;
42488;SDS011;28118;52.388;9.452;2022-07-22T00:26:06;13.35;;;12.15;;
42488;SDS011;28118;52.388;9.452;2022-07-22T00:28:33;11.63;;;10.48;;
42488;SDS011;28118;52.388;9.452;2022-07-22T00:30:59;14.50;;;13.23;;
42488;SDS011;28118;52.388;9.452;2022-07-22T00:33:26;16.08;;;12.27;;
42488;SDS011;28118;52.388;9.452;2022-07-22T00:35:53;12.20;;;11.05;;
42488;SDS011;28118;52.388;9.452;2022-07-22T00:38:20;14.95;;;10.43;;
42488;SDS011;28118;52.388;9.452;2022-07-22T00:40:46;13.38;;;11.63;;
42488;SDS011;28118;52.388;9.452;2022-07-22T00:43:13;12.98;;;11.85;;
42488;SDS011;28118;52.388;9.452;2022-07-22T00:45:40;16.52;;;14.35;;
42488;SDS011;28118;52.388;9.452;2022-07-22T00:48:07;14.57;;;13.27;;
42488;SDS011;28118;52.388;9.452;2022-07-22T00:50:34;15.95;;;14.35;;
42488;SDS011;28118;52.388;9.452;2022-07-22T00:53:01;16.23;;;14.55;;
42488;SDS011;28118;52.388;9.452;2022-07-22T00:55:27;15.18;;;13.88;;
42488;SDS011;28118;52.388;9.452;2022-07-22T00:57:55;16.60;;;15.07;;
42488;SDS011;28118;52.388;9.452;2022-07-22T01:00:22;17.95;;;16.30;;
42488;SDS011;28118;52.388;9.452;2022-07-22T01:02:48;20.67;;;18.60;;
42488;SDS011;28118;52.388;9.452;2022-07-22T01:05:15;21.33;;;17.58;;
42488;SDS011;28118;52.388;9.452;2022-07-22T01:07:43;19.05;;;17.15;;
42488;SDS011;28118;52.388;9.452;2022-07-22T01:10:10;21.27;;;17.20;;
42488;SDS011;28118;52.388;9.452;2022-07-22T01:12:37;19.85;;;17.85;;
42488;SDS011;28118;52.388;9.452;2022-07-22T01:15:04;21.23;;;19.10;;
42488;SDS011;28118;52.388;9.452;2022-07-22T01:17:31;18.02;;;16.20;;
42488;SDS011;28118;52.388;9.452;2022-07-22T01:20:00;18.80;;;16.98;;
42488;SDS011;28118;52.388;9.452;2022-07-22T01:22:30;16.40;;;14.82;;
42488;SDS011;28118;52.388;9.452;2022-07-22T01:24:59;17.00;;;14.65;;
42488;SDS011;28118;52.388;9.452;2022-07-22T01:27:25;17.55;;;13.40;;
42488;SDS011;28118;52.388;9.452;2022-07-22T01:29:52;17.20;;;14.07;;
42488;SDS011;28118;52.388;9.452;2022-07-22T01:32:19;13.65;;;12.45;;
42488;SDS011;28118;52.388;9.452;2022-07-22T01:34:46;18.15;;;14.07;;
42488;SDS011;28118;52.388;9.452;2022-07-22T01:37:13;17.60;;;15.48;;
42488;SDS011;28118;52.388;9.452;2022-07-22T01:39:40;17.35;;;15.65;;
42488;SDS011;28118;52.388;9.452;2022-07-22T01:42:06;20.20;;;17.80;;
42488;SDS011;28118;52.388;9.452;2022-07-22T01:44:33;25.35;;;15.98;;
42488;SDS011;28118;52.388;9.452;2022-07-22T01:47:00;22.23;;;16.58;;
42488;SDS011;28118;52.388;9.452;2022-07-22T01:49:27;21.10;;;17.17;;
42488;SDS011;28118;52.388;9.452;2022-07-22T01:51:53;24.58;;;16.35;;
42488;SDS011;28118;52.388;9.452;2022-07-22T01:54:20;22.55;;;15.95;;
42488;SDS011;28118;52.388;9.452;2022-07-22T01:56:49;22.90;;;15.68;;
42488;SDS011;28118;52.388;9.452;2022-07-22T01:59:16;17.73;;;14.10;;
42488;SDS011;28118;52.388;9.452;2022-07-22T02:01:43;16.85;;;15.18;;
42488;SDS011;28118;52.388;9.452;2022-07-22T02:04:10;22.90;;;13.23;;
42488;SDS011;28118;52.388;9.452;2022-07-22T02:06:36;11.70;;;10.45;;
42488;SDS011;28118;52.388;9.452;2022-07-22T02:09:03;10.25;;;9.25;;
42488;SDS011;28118;52.388;9.452;2022-07-22T02:11:31;8.57;;;7.25;;
42488;SDS011;28118;52.388;9.452;2022-07-22T02:13:58;17.17;;;8.75;;
42488;SDS011;28118;52.388;9.452;2022-07-22T02:16:24;8.52;;;7.20;;
42488;SDS011;28118;52.388;9.452;2022-07-22T02:18:51;7.35;;;5.85;;
42488;SDS011;28118;52.388;9.452;2022-07-22T02:21:19;12.35;;;6.47;;
42488;SDS011;28118;52.388;9.452;2022-07-22T02:23:46;12.52;;;8.63;;
42488;SDS011;28118;52.388;9.452;2022-07-22T02:26:13;5.57;;;5.07;;
42488;SDS011;28118;52.388;9.452;2022-07-22T02:28:39;8.93;;;8.02;;
42488;SDS011;28118;52.388;9.452;2022-07-22T02:31:06;11.77;;;6.07;;
42488;SDS011;28118;52.388;9.452;2022-07-22T02:33:33;10.95;;;7.68;;
42488;SDS011;28118;52.388;9.452;2022-07-22T02:36:01;8.30;;;7.45;;
42488;SDS011;28118;52.388;9.452;2022-07-22T02:38:29;11.25;;;9.52;;
42488;SDS011;28118;52.388;9.452;2022-07-22T02:40:56;9.50;;;8.70;;
42488;SDS011;28118;52.388;9.452;2022-07-22T02:43:23;11.75;;;9.90;;
42488;SDS011;28118;52.388;9.452;2022-07-22T02:45:49;18.55;;;12.30;;
42488;SDS011;28118;52.388;9.452;2022-07-22T02:48:16;21.48;;;13.82;;
42488;SDS011;28118;52.388;9.452;2022-07-22T02:50:46;15.55;;;13.25;;
42488;SDS011;28118;52.388;9.452;2022-07-22T02:53:14;16.85;;;13.90;;
42488;SDS011;28118;52.388;9.452;2022-07-22T02:55:41;18.38;;;14.73;;
42488;SDS011;28118;52.388;9.452;2022-07-22T02:58:08;18.58;;;14.52;;
42488;SDS011;28118;52.388;9.452;2022-07-22T03:00:35;25.00;;;17.23;;
42488;SDS011;28118;52.388;9.452;2022-07-22T03:03:04;24.73;;;15.93;;
42488;SDS011;28118;52.388;9.452;2022-07-22T03:05:31;22.60;;;15.15;;
42488;SDS011;28118;52.388;9.452;2022-07-22T03:07:58;15.55;;;12.15;;
42488;SDS011;28118;52.388;9.452;2022-07-22T03:10:25;20.38;;;14.27;;
42488;SDS011;28118;52.388;9.452;2022-07-22T03:12:51;15.90;;;13.40;;
42488;SDS011;28118;52.388;9.452;2022-07-22T03:15:19;13.45;;;11.15;;
42488;SDS011;28118;52.388;9.452;2022-07-22T03:17:46;17.35;;;12.98;;
42488;SDS011;28118;52.388;9.452;2022-07-22T03:20:12;19.17;;;13.25;;
42488;SDS011;28118;52.388;9.452;2022-07-22T03:22:39;14.85;;;11.52;;
42488;SDS011;28118;52.388;9.452;2022-07-22T03:25:06;11.32;;;10.15;;
42488;SDS011;28118;52.388;9.452;2022-07-22T03:27:33;13.65;;;10.70;;
42488;SDS011;28118;52.388;9.452;2022-07-22T03:30:00;14.07;;;9.70;;
42488;SDS011;28118;52.388;9.452;2022-07-22T03:32:26;24.70;;;10.95;;
42488;SDS011;28118;52.388;9.452;2022-07-22T03:34:53;11.80;;;9.57;;
42488;SDS011;28118;52.388;9.452;2022-07-22T03:37:28;11.75;;;10.57;;
42488;SDS011;28118;52.388;9.452;2022-07-22T03:39:55;13.15;;;10.10;;
42488;SDS011;28118;52.388;9.452;2022-07-22T03:42:22;11.43;;;9.15;;
42488;SDS011;28118;52.388;9.452;2022-07-22T03:44:48;13.55;;;10.55;;
42488;SDS011;28118;52.388;9.452;2022-07-22T03:47:19;8.75;;;7.95;;
42488;SDS011;28118;52.388;9.452;2022-07-22T03:49:46;12.48;;;9.15;;
42488;SDS011;28118;52.388;9.452;2022-07-22T03:52:13;9.32;;;7.20;;
42488;SDS011;28118;52.388;9.452;2022-07-22T03:54:40;10.02;;;7.93;;
42488;SDS011;28118;52.388;9.452;2022-07-22T03:57:08;7.60;;;6.82;;
42488;SDS011;28118;52.388;9.452;2022-07-22T03:59:34;8.93;;;7.45;;
42488;SDS011;28118;52.388;9.452;2022-07-22T04:02:02;9.27;;;6.38;;
42488;SDS011;28118;52.388;9.452;2022-07-22T04:04:29;6.93;;;6.28;;
42488;SDS011;28118;52.388;9.452;2022-07-22T04:06:56;6.75;;;6.05;;
42488;SDS011;28118;52.388;9.452;2022-07-22T04:09:23;11.45;;;6.82;;
42488;SDS011;28118;52.388;9.452;2022-07-22T04:11:50;8.20;;;6.50;;
42488;SDS011;28118;52.388;9.452;2022-07-22T04:14:17;8.02;;;7.18;;
42488;SDS011;28118;52.388;9.452;2022-07-22T04:16:45;9.63;;;7.28;;
42488;SDS011;28118;52.388;9.452;2022-07-22T04:19:12;7.82;;;7.05;;
42488;SDS011;28118;52.388;9.452;2022-07-22T04:21:39;22.65;;;8.98;;
42488;SDS011;28118;52.388;9.452;2022-07-22T04:24:06;8.63;;;6.38;;
42488;SDS011;28118;52.388;9.452;2022-07-22T04:26:33;14.35;;;7.88;;
42488;SDS011;28118;52.388;9.452;2022-07-22T04:29:00;8.63;;;6.95;;
42488;SDS011;28118;52.388;9.452;2022-07-22T04:31:27;11.40;;;6.95;;
42488;SDS011;28118;52.388;9.452;2022-07-22T04:33:53;9.65;;;7.60;;
42488;SDS011;28118;52.388;9.452;2022-07-22T04:36:20;14.38;;;7.32;;
42488;SDS011;28118;52.388;9.452;2022-07-22T04:38:47;11.65;;;8.60;;
42488;SDS011;28118;52.388;9.452;2022-07-22T04:41:14;12.00;;;8.82;;
42488;SDS011;28118;52.388;9.452;2022-07-22T04:43:45;14.00;;;7.93;;
42488;SDS011;28118;52.388;9.452;2022-07-22T04:46:12;11.15;;;7.38;;
42488;SDS011;28118;52.388;9.452;2022-07-22T04:48:39;13.00;;;9.57;;
42488;SDS011;28118;52.388;9.452;2022-07-22T04:51:05;16.83;;;9.32;;
42488;SDS011;28118;52.388;9.452;2022-07-22T04:53:32;12.27;;;8.40;;
42488;SDS011;28118;52.388;9.452;2022-07-22T04:56:13;7.95;;;6.95;;
42488;SDS011;28118;52.388;9.452;2022-07-22T04:58:40;16.85;;;7.15;;
42488;SDS011;28118;52.388;9.452;2022-07-22T05:01:07;7.63;;;5.80;;
42488;SDS011;28118;52.388;9.452;2022-07-22T05:03:33;9.93;;;6.35;;
42488;SDS011;28118;52.388;9.452;2022-07-22T05:06:00;7.40;;;6.63;;
42488;SDS011;28118;52.388;9.452;2022-07-22T05:08:27;6.65;;;4.97;;
42488;SDS011;28118;52.388;9.452;2022-07-22T05:10:54;6.00;;;4.45;;
42488;SDS011;28118;52.388;9.452;2022-07-22T05:13:20;4.05;;;3.67;;
42488;SDS011;28118;52.388;9.452;2022-07-22T05:15:47;5.97;;;5.05;;
42488;SDS011;28118;52.388;9.452;2022-07-22T05:18:14;5.78;;;4.53;;
42488;SDS011;28118;52.388;9.452;2022-07-22T05:20:41;11.43;;;6.18;;
42488;SDS011;28118;52.388;9.452;2022-07-22T05:23:08;8.20;;;4.35;;
42488;SDS011;28118;52.388;9.452;2022-07-22T05:25:35;5.80;;;5.25;;
42488;SDS011;28118;52.388;9.452;2022-07-22T05:28:01;5.68;;;4.35;;
42488;SDS011;28118;52.388;9.452;2022-07-22T05:30:28;9.75;;;5.18;;
42488;SDS011;28118;52.388;9.452;2022-07-22T05:32:55;5.82;;;4.53;;
42488;SDS011;28118;52.388;9.452;2022-07-22T05:35:22;5.70;;;4.80;;
42488;SDS011;28118;52.388;9.452;2022-07-22T05:37:49;12.45;;;6.07;;
42488;SDS011;28118;52.388;9.452;2022-07-22T05:40:15;10.10;;;5.45;;
42488;SDS011;28118;52.388;9.452;2022-07-22T05:42:42;5.75;;;4.07;;
42488;SDS011;28118;52.388;9.452;2022-07-22T05:45:09;12.07;;;4.88;;
42488;SDS011;28118;52.388;9.452;2022-07-22T05:47:36;5.22;;;4.55;;
42488;SDS011;28118;52.388;9.452;2022-07-22T05:50:03;6.65;;;4.10;;
42488;SDS011;28118;52.388;9.452;2022-07-22T05:52:30;5.95;;;4.28;;
42488;SDS011;28118;52.388;9.452;2022-07-22T05:54:59;6.90;;;4.65;;
42488;SDS011;28118;52.388;9.452;2022-07-22T05:57:26;4.60;;;4.20;;
42488;SDS011;28118;52.388;9.452;2022-07-22T05:59:53;4.72;;;4.00;;
42488;SDS011;28118;52.388;9.452;2022-07-22T06:02:20;11.00;;;4.50;;
42488;SDS011;28118;52.388;9.452;2022-07-22T06:04:47;6.18;;;5.38;;
42488;SDS011;28118;52.388;9.452;2022-07-22T06:07:14;7.47;;;6.57;;
42488;SDS011;28118;52.388;9.452;2022-07-22T06:09:41;7.80;;;5.97;;
42488;SDS011;28118;52.388;9.452;2022-07-22T06:12:07;7.07;;;6.38;;
42488;SDS011;28118;52.388;9.452;2022-07-22T06:14:34;6.43;;;5.80;;
42488;SDS011;28118;52.388;9.452;2022-07-22T06:17:03;6.85;;;6.22;;
42488;SDS011;28118;52.388;9.452;2022-07-22T06:19:29;8.50;;;7.22;;
42488;SDS011;28118;52.388;9.452;2022-07-22T06:21:56;6.82;;;6.13;;
42488;SDS011;28118;52.388;9.452;2022-07-22T06:24:23;5.45;;;4.75;;
42488;SDS011;28118;52.388;9.452;2022-07-22T06:26:51;8.60;;;4.93;;
42488;SDS011;28118;52.388;9.452;2022-07-22T06:29:18;4.43;;;4.03;;
42488;SDS011;28118;52.388;9.452;2022-07-22T06:31:44;5.38;;;3.30;;
42488;SDS011;28118;52.388;9.452;2022-07-22T06:34:11;3.97;;;3.53;;
42488;SDS011;28118;52.388;9.452;2022-07-22T06:36:38;4.53;;;3.80;;
42488;SDS011;28118;52.388;9.452;2022-07-22T06:39:05;7.65;;;4.30;;
42488;SDS011;28118;52.388;9.452;2022-07-22T06:41:32;12.60;;;5.30;;
42488;SDS011;28118;52.388;9.452;2022-07-22T06:43:59;6.32;;;4.20;;
42488;SDS011;28118;52.388;9.452;2022-07-22T06:46:25;3.65;;;3.33;;
42488;SDS011;28118;52.388;9.452;2022-07-22T06:48:52;5.13;;;4.57;;
42488;SDS011;28118;52.388;9.452;2022-07-22T06:51:19;6.40;;;4.88;;
42488;SDS011;28118;52.388;9.452;2022-07-22T06:53:52;3.63;;;3.28;;
42488;SDS011;28118;52.388;9.452;2022-07-22T06:56:18;5.53;;;5.00;;
42488;SDS011;28118;52.388;9.452;2022-07-22T06:58:45;7.45;;;4.00;;
42488;SDS011;28118;52.388;9.452;2022-07-22T07:01:12;6.65;;;2.85;;
42488;SDS011;28118;52.388;9.452;2022-07-22T07:03:39;8.85;;;4.45;;
42488;SDS011;28118;52.388;9.452;2022-07-22T07:06:09;5.13;;;3.28;;
42488;SDS011;28118;52.388;9.452;2022-07-22T07:08:38;4.03;;;3.47;;
42488;SDS011;28118;52.388;9.452;2022-07-22T07:11:06;3.47;;;2.63;;
42488;SDS011;28118;52.388;9.452;2022-07-22T07:13:33;8.45;;;2.85;;
42488;SDS011;28118;52.388;9.452;2022-07-22T07:16:00;10.77;;;3.05;;
42488;SDS011;28118;52.388;9.452;2022-07-22T07:18:26;4.53;;;2.80;;
42488;SDS011;28118;52.388;9.452;2022-07-22T07:20:53;5.53;;;3.83;;
42488;SDS011;28118;52.388;9.452;2022-07-22T07:23:20;6.32;;;3.58;;
42488;SDS011;28118;52.388;9.452;2022-07-22T07:25:47;8.80;;;3.13;;
42488;SDS011;28118;52.388;9.452;2022-07-22T07:28:14;7.63;;;3.00;;
42488;SDS011;28118;52.388;9.452;2022-07-22T07:30:41;8.15;;;4.10;;
42488;SDS011;28118;52.388;9.452;2022-07-22T07:33:08;6.07;;;2.83;;
42488;SDS011;28118;52.388;9.452;2022-07-22T07:35:35;7.35;;;3.67;;
42488;SDS011;28118;52.388;9.452;2022-07-22T07:38:01;4.07;;;3.67;;
42488;SDS011;28118;52.388;9.452;2022-07-22T07:40:28;5.53;;;4.47;;
42488;SDS011;28118;52.388;9.452;2022-07-22T07:42:55;8.25;;;4.35;;
42488;SDS011;28118;52.388;9.452;2022-07-22T07:45:28;5.32;;;3.25;;
42488;SDS011;28118;52.388;9.452;2022-07-22T07:47:55;2.97;;;2.40;;
42488;SDS011;28118;52.388;9.452;2022-07-22T07:50:22;6.10;;;4.65;;
42488;SDS011;28118;52.388;9.452;2022-07-22T07:52:49;12.75;;;4.47;;
42488;SDS011;28118;52.388;9.452;2022-07-22T07:55:18;5.10;;;4.38;;
42488;SDS011;28118;52.388;9.452;2022-07-22T07:57:46;9.65;;;4.38;;
42488;SDS011;28118;52.388;9.452;2022-07-22T08:00:17;8.48;;;5.85;;
42488;SDS011;28118;52.388;9.452;2022-07-22T08:02:46;8.40;;;4.32;;
42488;SDS011;28118;52.388;9.452;2022-07-22T08:05:14;18.08;;;4.47;;
42488;SDS011;28118;52.388;9.452;2022-07-22T08:07:41;11.45;;;4.63;;
42488;SDS011;28118;52.388;9.452;2022-07-22T08:10:08;9.90;;;4.00;;
42488;SDS011;28118;52.388;9.452;2022-07-22T08:12:56;17.50;;;3.92;;
42488;SDS011;28118;52.388;9.452;2022-07-22T08:15:25;10.80;;;4.57;;
42488;SDS011;28118;52.388;9.452;2022-07-22T08:17:53;4.07;;;3.65;;
42488;SDS011;28118;52.388;9.452;2022-07-22T08:20:22;8.13;;;5.13;;
42488;SDS011;28118;52.388;9.452;2022-07-22T08:22:52;12.30;;;5.50;;
42488;SDS011;28118;52.388;9.452;2022-07-22T08:25:20;12.20;;;5.38;;
42488;SDS011;28118;52.388;9.452;2022-07-22T08:27:47;8.13;;;4.03;;
42488;SDS011;28118;52.388;9.452;2022-07-22T08:30:14;7.97;;;4.55;;
42488;SDS011;28118;52.388;9.452;2022-07-22T08:32:41;6.72;;;4.38;;
42488;SDS011;28118;52.388;9.452;2022-07-22T08:35:08;8.20;;;4.15;;
42488;SDS011;28118;52.388;9.452;2022-07-22T08:37:35;8.77;;;3.70;;
42488;SDS011;28118;52.388;9.452;2022-07-22T08:40:03;4.93;;;4.05;;
42488;SDS011;28118;52.388;9.452;2022-07-22T08:42:30;13.73;;;4.57;;
42488;SDS011;28118;52.388;9.452;2022-07-22T08:44:59;11.88;;;4.43;;
42488;SDS011;28118;52.388;9.452;2022-07-22T08:47:31;12.88;;;5.30;;
42488;SDS011;28118;52.388;9.452;2022-07-22T08:50:09;13.10;;;3.95;;
42488;SDS011;28118;52.388;9.452;2022-07-22T08:52:36;4.25;;;3.95;;
42488;SDS011;28118;52.388;9.452;2022-07-22T08:55:06;7.70;;;4.63;;
42488;SDS011;28118;52.388;9.452;2022-07-22T08:57:34;5.00;;;4.35;;
42488;SDS011;28118;52.388;9.452;2022-07-22T09:00:11;9.30;;;5.43;;
42488;SDS011;28118;52.388;9.452;2022-07-22T09:02:41;9.85;;;6.28;;
42488;SDS011;28118;52.388;9.452;2022-07-22T09:05:09;14.52;;;6.82;;
42488;SDS011;28118;52.388;9.452;2022-07-22T09:08:00;12.70;;;6.03;;
42488;SDS011;28118;52.388;9.452;2022-07-22T09:10:30;4.97;;;4.57;;
42488;SDS011;28118;52.388;9.452;2022-07-22T09:13:00;6.32;;;5.07;;
42488;SDS011;28118;52.388;9.452;2022-07-22T09:18:02;9.23;;;6.72;;
42488;SDS011;28118;52.388;9.452;2022-07-22T09:20:32;10.57;;;7.32;;
42488;SDS011;28118;52.388;9.452;2022-07-22T09:23:00;11.57;;;6.38;;
42488;SDS011;28118;52.388;9.452;2022-07-22T09:28:15;8.43;;;7.20;;
42488;SDS011;28118;52.388;9.452;2022-07-22T09:30:47;6.60;;;5.57;;
42488;SDS011;28118;52.388;9.452;2022-07-22T09:33:22;8.57;;;4.93;;
42488;SDS011;28118;52.388;9.452;2022-07-22T09:35:50;17.13;;;5.80;;
42488;SDS011;28118;52.388;9.452;2022-07-22T09:38:19;8.93;;;5.70;;
42488;SDS011;28118;52.388;9.452;2022-07-22T09:40:54;10.25;;;6.38;;
42488;SDS011;28118;52.388;9.452;2022-07-22T09:43:21;9.13;;;4.43;;
42488;SDS011;28118;52.388;9.452;2022-07-22T09:45:51;9.30;;;4.63;;
42488;SDS011;28118;52.388;9.452;2022-07-22T09:48:25;13.32;;;3.92;;
42488;SDS011;28118;52.388;9.452;2022-07-22T09:50:53;5.07;;;4.07;;
42488;SDS011;28118;52.388;9.452;2022-07-22T09:53:22;5.80;;;4.45;;
42488;SDS011;28118;52.388;9.452;2022-07-22T09:55:59;5.90;;;3.47;;
42488;SDS011;28118;52.388;9.452;2022-07-22T09:58:27;12.20;;;3.47;;
42488;SDS011;28118;52.388;9.452;2022-07-22T10:00:55;6.00;;;5.50;;
42488;SDS011;28118;52.388;9.452;2022-07-22T10:03:27;7.15;;;4.22;;
42488;SDS011;28118;52.388;9.452;2022-07-22T10:05:56;16.58;;;5.03;;
42488;SDS011;28118;52.388;9.452;2022-07-22T10:08:27;6.00;;;3.38;;
42488;SDS011;28118;52.388;9.452;2022-07-22T10:10:58;8.60;;;3.17;;
42488;SDS011;28118;52.388;9.452;2022-07-22T10:13:26;4.80;;;3.25;;
42488;SDS011;28118;52.388;9.452;2022-07-22T10:15:54;5.45;;;3.03;;
42488;SDS011;28118;52.388;9.452;2022-07-22T10:18:23;6.03;;;2.90;;
42488;SDS011;28118;52.388;9.452;2022-07-22T10:21:07;5.38;;;3.50;;
42488;SDS011;28118;52.388;9.452;2022-07-22T10:23:35;4.70;;;2.83;;
42488;SDS011;28118;52.388;9.452;2022-07-22T10:26:32;5.57;;;2.83;;
42488;SDS011;28118;52.388;9.452;2022-07-22T10:34:42;5.55;;;2.83;;
42488;SDS011;28118;52.388;9.452;2022-07-22T10:40:45;8.50;;;3.30;;
42488;SDS011;28118;52.388;9.452;2022-07-22T10:48:12;4.13;;;3.75;;
42488;SDS011;28118;52.388;9.452;2022-07-22T10:50:42;6.80;;;3.50;;
42488;SDS011;28118;52.388;9.452;2022-07-22T11:01:01;17.35;;;4.68;;
42488;SDS011;28118;52.388;9.452;2022-07-22T11:03:33;11.48;;;3.83;;
42488;SDS011;28118;52.388;9.452;2022-07-22T11:06:14;5.43;;;3.47;;
42488;SDS011;28118;52.388;9.452;2022-07-22T11:08:52;4.95;;;4.10;;
42488;SDS011;28118;52.388;9.452;2022-07-22T11:14:17;5.03;;;3.05;;
42488;SDS011;28118;52.388;9.452;2022-07-22T11:16:56;3.72;;;2.78;;
42488;SDS011;28118;52.388;9.452;2022-07-22T11:19:25;4.95;;;3.17;;
42488;SDS011;28118;52.388;9.452;2022-07-22T11:21:54;15.15;;;4.65;;
42488;SDS011;28118;52.388;9.452;2022-07-22T11:24:23;8.75;;;4.65;;
42488;SDS011;28118;52.388;9.452;2022-07-22T11:26:51;5.57;;;4.25;;
42488;SDS011;28118;52.388;9.452;2022-07-22T11:29:29;8.93;;;5.45;;
42488;SDS011;28118;52.388;9.452;2022-07-22T11:31:57;8.70;;;4.22;;
42488;SDS011;28118;52.388;9.452;2022-07-22T11:34:25;6.15;;;4.25;;
42488;SDS011;28118;52.388;9.452;2022-07-22T11:36:53;4.90;;;4.03;;
42488;SDS011;28118;52.388;9.452;2022-07-22T11:39:22;4.65;;;3.78;;
42488;SDS011;28118;52.388;9.452;2022-07-22T11:41:51;8.88;;;3.20;;
42488;SDS011;28118;52.388;9.452;2022-07-22T11:44:20;4.95;;;4.03;;
42488;SDS011;28118;52.388;9.452;2022-07-22T11:46:48;2.60;;;2.30;;
42488;SDS011;28118;52.388;9.452;2022-07-22T11:49:16;3.70;;;2.88;;
42488;SDS011;28118;52.388;9.452;2022-07-22T11:51:44;3.35;;;2.50;;
42488;SDS011;28118;52.388;9.452;2022-07-22T11:54:12;7.60;;;4.03;;
42488;SDS011;28118;52.388;9.452;2022-07-22T11:56:39;6.00;;;4.22;;
42488;SDS011;28118;52.388;9.452;2022-07-22T11:59:06;8.85;;;4.28;;
42488;SDS011;28118;52.388;9.452;2022-07-22T12:01:38;6.82;;;4.78;;
42488;SDS011;28118;52.388;9.452;2022-07-22T12:04:07;4.57;;;3.30;;
42488;SDS011;28118;52.388;9.452;2022-07-22T12:06:37;7.45;;;4.10;;
42488;SDS011;28118;52.388;9.452;2022-07-22T12:11:37;11.07;;;3.97;;
42488;SDS011;28118;52.388;9.452;2022-07-22T12:14:08;4.90;;;3.88;;
42488;SDS011;28118;52.388;9.452;2022-07-22T12:16:42;5.65;;;3.80;;
42488;SDS011;28118;52.388;9.452;2022-07-22T12:19:18;6.72;;;4.63;;
42488;SDS011;28118;52.388;9.452;2022-07-22T12:24:32;4.88;;;4.40;;
42488;SDS011;28118;52.388;9.452;2022-07-22T12:27:18;7.00;;;4.53;;
42488;SDS011;28118;52.388;9.452;2022-07-22T12:29:47;5.53;;;5.03;;
42488;SDS011;28118;52.388;9.452;2022-07-22T12:34:55;4.97;;;4.55;;
42488;SDS011;28118;52.388;9.452;2022-07-22T12:37:23;11.85;;;4.72;;
42488;SDS011;28118;52.388;9.452;2022-07-22T12:40:07;7.57;;;4.60;;
42488;SDS011;28118;52.388;9.452;2022-07-22T12:42:35;5.30;;;4.07;;
42488;SDS011;28118;52.388;9.452;2022-07-22T12:45:08;4.35;;;3.92;;
42488;SDS011;28118;52.388;9.452;2022-07-22T12:47:46;8.02;;;4.85;;
42488;SDS011;28118;52.388;9.452;2022-07-22T12:52:46;5.03;;;4.43;;
42488;SDS011;28118;52.388;9.452;2022-07-22T12:58:21;11.60;;;4.38;;
42488;SDS011;28118;52.388;9.452;2022-07-22T13:00:51;7.68;;;4.57;;
42488;SDS011;28118;52.388;9.452;2022-07-22T13:03:20;6.50;;;3.47;;
42488;SDS011;28118;52.388;9.452;2022-07-22T13:05:56;5.90;;;4.22;;
42488;SDS011;28118;52.388;9.452;2022-07-22T13:11:05;12.85;;;5.05;;
42488;SDS011;28118;52.388;9.452;2022-07-22T13:13:31;6.88;;;5.50;;
42488;SDS011;28118;52.388;9.452;2022-07-22T13:15:58;7.35;;;5.88;;
42488;SDS011;28118;52.388;9.452;2022-07-22T13:18:25;6.82;;;5.70;;
42488;SDS011;28118;52.388;9.452;2022-07-22T13:20:51;8.43;;;4.15;;
42488;SDS011;28118;52.388;9.452;2022-07-22T13:23:18;14.40;;;4.57;;
42488;SDS011;28118;52.388;9.452;2022-07-22T13:25:45;6.80;;;4.50;;
42488;SDS011;28118;52.388;9.452;2022-07-22T13:28:17;5.82;;;5.00;;
42488;SDS011;28118;52.388;9.452;2022-07-22T13:30:43;10.73;;;4.68;;
42488;SDS011;28118;52.388;9.452;2022-07-22T13:33:10;9.60;;;4.20;;
42488;SDS011;28118;52.388;9.452;2022-07-22T13:35:37;7.63;;;4.57;;
42488;SDS011;28118;52.388;9.452;2022-07-22T13:38:03;5.70;;;5.00;;
42488;SDS011;28118;52.388;9.452;2022-07-22T13:40:30;7.78;;;5.50;;
42488;SDS011;28118;52.388;9.452;2022-07-22T13:42:57;8.52;;;5.22;;
42488;SDS011;28118;52.388;9.452;2022-07-22T13:45:24;8.98;;;4.90;;
42488;SDS011;28118;52.388;9.452;2022-07-22T13:47:51;5.45;;;4.90;;
42488;SDS011;28118;52.388;9.452;2022-07-22T13:50:18;12.10;;;5.40;;
42488;SDS011;28118;52.388;9.452;2022-07-22T13:52:45;10.75;;;4.85;;
42488;SDS011;28118;52.388;9.452;2022-07-22T13:55:13;16.33;;;5.60;;
42488;SDS011;28118;52.388;9.452;2022-07-22T13:57:40;7.38;;;5.55;;
42488;SDS011;28118;52.388;9.452;2022-07-22T14:00:08;6.05;;;4.78;;
42488;SDS011;28118;52.388;9.452;2022-07-22T14:02:40;24.33;;;6.72;;
42488;SDS011;28118;52.388;9.452;2022-07-22T14:05:07;10.13;;;6.70;;
42488;SDS011;28118;52.388;9.452;2022-07-22T14:07:33;4.93;;;4.40;;
42488;SDS011;28118;52.388;9.452;2022-07-22T14:10:00;4.53;;;4.13;;
42488;SDS011;28118;52.388;9.452;2022-07-22T14:12:27;7.57;;;5.47;;
42488;SDS011;28118;52.388;9.452;2022-07-22T14:14:54;8.63;;;4.60;;
42488;SDS011;28118;52.388;9.452;2022-07-22T14:17:21;7.05;;;4.55;;
42488;SDS011;28118;52.388;9.452;2022-07-22T14:19:51;7.40;;;5.55;;
42488;SDS011;28118;52.388;9.452;2022-07-22T14:22:25;7.43;;;4.07;;
42488;SDS011;28118;52.388;9.452;2022-07-22T14:24:53;10.95;;;6.25;;
42488;SDS011;28118;52.388;9.452;2022-07-22T14:27:20;12.48;;;5.55;;
42488;SDS011;28118;52.388;9.452;2022-07-22T14:29:47;12.70;;;5.50;;
42488;SDS011;28118;52.388;9.452;2022-07-22T14:32:13;8.45;;;6.28;;
42488;SDS011;28118;52.388;9.452;2022-07-22T14:34:40;12.25;;;5.03;;
42488;SDS011;28118;52.388;9.452;2022-07-22T14:37:07;4.57;;;3.72;;
42488;SDS011;28118;52.388;9.452;2022-07-22T14:39:34;17.10;;;5.43;;
42488;SDS011;28118;52.388;9.452;2022-07-22T14:42:01;6.85;;;6.15;;
42488;SDS011;28118;52.388;9.452;2022-07-22T14:44:28;14.23;;;5.28;;
42488;SDS011;28118;52.388;9.452;2022-07-22T14:46:55;14.93;;;6.88;;
42488;SDS011;28118;52.388;9.452;2022-07-22T14:49:21;5.32;;;4.05;;
42488;SDS011;28118;52.388;9.452;2022-07-22T14:51:48;10.38;;;5.90;;
42488;SDS011;28118;52.388;9.452;2022-07-22T14:54:15;5.82;;;5.03;;
42488;SDS011;28118;52.388;9.452;2022-07-22T14:56:41;6.45;;;5.05;;
42488;SDS011;28118;52.388;9.452;2022-07-22T14:59:08;15.13;;;4.03;;
42488;SDS011;28118;52.388;9.452;2022-07-22T15:01:35;10.48;;;5.60;;
42488;SDS011;28118;52.388;9.452;2022-07-22T15:04:02;10.43;;;5.53;;
42488;SDS011;28118;52.388;9.452;2022-07-22T15:06:29;5.90;;;5.03;;
42488;SDS011;28118;52.388;9.452;2022-07-22T15:08:56;6.20;;;4.55;;
42488;SDS011;28118;52.388;9.452;2022-07-22T15:11:22;13.80;;;6.32;;
42488;SDS011;28118;52.388;9.452;2022-07-22T15:13:49;7.97;;;6.07;;
42488;SDS011;28118;52.388;9.452;2022-07-22T15:16:16;8.82;;;6.03;;
42488;SDS011;28118;52.388;9.452;2022-07-22T15:18:43;5.65;;;4.68;;
42488;SDS011;28118;52.388;9.452;2022-07-22T15:21:09;6.75;;;4.80;;
42488;SDS011;28118;52.388;9.452;2022-07-22T15:23:37;5.70;;;5.18;;
42488;SDS011;28118;52.388;9.452;2022-07-22T15:26:03;6.47;;;5.88;;
42488;SDS011;28118;52.388;9.452;2022-07-22T15:28:30;13.32;;;5.45;;
42488;SDS011;28118;52.388;9.452;2022-07-22T15:30:59;6.10;;;4.80;;